createdAt,value
2018-09-05T00:00:01.214Z,78.98
2018-09-05T00:01:01.189Z,79.65
2018-09-05T00:02:01.247Z,79.27
2018-09-05T00:03:01.217Z,79.75
2018-09-05T00:04:01.235Z,79.75
2018-09-05T00:05:01.245Z,80.32
2018-09-05T00:06:01.287Z,79.94
2018-09-05T00:07:01.266Z,79.84
2018-09-05T00:08:01.291Z,80.22
2018-09-05T00:09:01.272Z,80.42
2018-09-05T00:10:01.266Z,80.42
2018-09-05T00:11:01.295Z,80.42
2018-09-05T00:12:01.318Z,80.71
2018-09-05T00:13:01.340Z,80.61
2018-09-05T00:14:01.339Z,80.42
2018-09-05T00:15:01.332Z,80.90
2018-09-05T00:16:01.355Z,80.51
2018-09-05T00:17:01.374Z,80.32
2018-09-05T00:18:01.416Z,80.61
2018-09-05T00:19:01.379Z,80.99
2018-09-05T00:20:01.409Z,80.99
2018-09-05T00:21:01.395Z,80.61
2018-09-05T00:22:01.418Z,80.99
2018-09-05T00:23:01.427Z,81.76
2018-09-05T00:24:01.463Z,81.67
2018-09-05T00:25:01.465Z,81.57
2018-09-05T00:26:01.450Z,82.63
2018-09-05T00:27:01.465Z,81.86
2018-09-05T00:28:01.479Z,82.05
2018-09-05T00:29:01.552Z,82.05
2018-09-05T00:30:01.514Z,82.05
2018-09-05T00:31:01.519Z,81.86
2018-09-05T00:32:01.537Z,82.15
2018-09-05T00:33:01.529Z,82.73
2018-09-05T00:34:01.538Z,82.15
2018-09-05T00:35:01.530Z,82.53
2018-09-05T00:36:01.605Z,82.43
2018-09-05T00:37:01.576Z,82.73
2018-09-05T00:38:01.559Z,82.53
2018-09-05T00:39:01.596Z,82.15
2018-09-05T00:40:01.593Z,82.73
2018-09-05T00:41:01.619Z,82.53
2018-09-05T00:42:01.612Z,82.34
2018-09-05T00:43:01.625Z,82.34
2018-09-05T00:44:01.667Z,82.53
2018-09-05T00:45:01.674Z,82.53
2018-09-05T00:46:01.642Z,82.24
2018-09-05T00:47:01.689Z,82.53
2018-09-05T00:48:01.692Z,82.63
2018-09-05T00:49:01.745Z,82.63
2018-09-05T00:50:01.722Z,82.15
2018-09-05T00:51:01.732Z,82.34
2018-09-05T00:52:01.716Z,82.92
2018-09-05T00:53:01.740Z,82.82
2018-09-05T00:54:01.756Z,82.73
2018-09-05T00:55:01.738Z,83.30
2018-09-05T00:56:01.771Z,82.53
2018-09-05T00:57:01.838Z,83.36
2018-09-05T00:58:01.799Z,83.78
2018-09-05T00:59:01.830Z,83.64
2018-09-05T01:00:01.788Z,83.74
2018-09-05T01:01:01.805Z,83.01
2018-09-05T01:02:01.806Z,83.16
2018-09-05T01:03:01.850Z,83.26
2018-09-05T01:04:01.861Z,83.45
2018-09-05T01:05:01.855Z,83.26
2018-09-05T01:06:01.843Z,83.11
2018-09-05T01:07:01.876Z,83.40
2018-09-05T01:08:01.938Z,82.73
2018-09-05T01:09:01.918Z,82.73
2018-09-05T01:10:01.958Z,83.40
2018-09-05T01:11:01.907Z,83.01
2018-09-05T01:12:01.942Z,82.82
2018-09-05T01:13:01.959Z,83.20
2018-09-05T01:14:01.930Z,83.40
2018-09-05T01:15:01.934Z,83.40
2018-09-05T01:16:01.958Z,82.78
2018-09-05T01:17:01.965Z,83.64
2018-09-05T01:18:02.013Z,83.84
2018-09-05T01:19:02.036Z,83.45
2018-09-05T01:20:02.019Z,83.93
2018-09-05T01:21:02.010Z,83.93
2018-09-05T01:22:02.034Z,84.41
2018-09-05T01:23:02.115Z,84.70
2018-09-05T01:24:02.073Z,84.60
2018-09-05T01:25:02.065Z,84.70
2018-09-05T01:26:02.336Z,84.80
2018-09-05T01:27:02.088Z,84.41
2018-09-05T01:28:02.111Z,84.12
2018-09-05T01:29:02.095Z,84.31
2018-09-05T01:30:02.104Z,84.51
2018-09-05T01:31:02.124Z,84.70
2018-09-05T01:32:02.144Z,84.89
2018-09-05T01:33:02.131Z,84.03
2018-09-05T01:34:02.146Z,84.51
2018-09-05T01:35:02.188Z,84.89
2018-09-05T01:36:02.170Z,84.60
2018-09-05T01:37:02.198Z,84.80
2018-09-05T01:38:02.211Z,84.51
2018-09-05T01:39:02.191Z,85.08
2018-09-05T01:40:02.212Z,85.57
2018-09-05T01:41:02.233Z,85.37
2018-09-05T01:42:02.247Z,85.66
2018-09-05T01:43:02.272Z,85.75
2018-09-05T01:44:02.245Z,84.99
2018-09-05T01:45:02.344Z,85.28
2018-09-05T01:46:02.273Z,85.42
2018-09-05T01:47:02.271Z,85.24
2018-09-05T01:48:02.311Z,85.24
2018-09-05T01:49:02.327Z,85.52
2018-09-05T01:50:02.343Z,85.81
2018-09-05T01:51:02.317Z,85.14
2018-09-05T01:52:02.366Z,85.71
2018-09-05T01:53:02.345Z,85.04
2018-09-05T01:54:02.341Z,85.33
2018-09-05T01:55:02.612Z,85.42
2018-09-05T01:56:02.362Z,85.66
2018-09-05T01:57:02.406Z,85.62
2018-09-05T01:58:02.400Z,85.66
2018-09-05T01:59:02.414Z,85.66
2018-09-05T02:00:02.426Z,86.29
2018-09-05T02:01:02.525Z,85.33
2018-09-05T02:02:02.437Z,86.00
2018-09-05T02:03:02.426Z,85.66
2018-09-05T02:04:02.432Z,86.29
2018-09-05T02:05:02.445Z,86.00
2018-09-05T02:06:02.549Z,86.10
2018-09-05T02:07:02.526Z,86.29
2018-09-05T02:08:02.496Z,86.38
2018-09-05T02:09:02.526Z,86.38
2018-09-05T02:10:02.499Z,86.68
2018-09-05T02:11:02.512Z,86.48
2018-09-05T02:12:02.543Z,86.29
2018-09-05T02:13:02.569Z,86.48
2018-09-05T02:14:02.558Z,86.58
2018-09-05T02:15:02.565Z,86.48
2018-09-05T02:16:02.585Z,86.77
2018-09-05T02:17:02.577Z,86.58
2018-09-05T02:18:02.653Z,86.48
2018-09-05T02:19:02.598Z,86.38
2018-09-05T02:20:02.613Z,86.48
2018-09-05T02:21:02.620Z,86.77
2018-09-05T02:22:02.670Z,86.77
2018-09-05T02:23:02.652Z,86.68
2018-09-05T02:24:02.655Z,86.58
2018-09-05T02:25:02.658Z,86.68
2018-09-05T02:26:02.662Z,87.05
2018-09-05T02:27:02.696Z,87.05
2018-09-05T02:28:02.718Z,86.96
2018-09-05T02:29:02.689Z,87.92
2018-09-05T02:30:02.735Z,88.07
2018-09-05T02:31:02.713Z,88.11
2018-09-05T02:32:02.768Z,88.40
2018-09-05T02:33:02.756Z,88.21
2018-09-05T02:34:02.755Z,88.02
2018-09-05T02:35:02.768Z,87.44
2018-09-05T02:36:02.766Z,87.73
2018-09-05T02:37:02.796Z,88.02
2018-09-05T02:38:02.927Z,89.17
2018-09-05T02:39:02.785Z,89.79
2018-09-05T02:40:02.812Z,89.94
2018-09-05T02:41:02.812Z,89.51
2018-09-05T02:42:02.829Z,89.99
2018-09-05T02:43:02.883Z,91.81
2018-09-05T02:44:02.863Z,91.62
2018-09-05T02:45:02.873Z,91.62
2018-09-05T02:46:02.875Z,90.75
2018-09-05T02:47:02.888Z,91.42
2018-09-05T02:48:02.918Z,91.62
2018-09-05T02:49:02.888Z,91.42
2018-09-05T02:50:02.903Z,90.28
2018-09-05T02:51:02.913Z,90.56
2018-09-05T02:52:02.912Z,90.42
2018-09-05T02:53:02.961Z,90.61
2018-09-05T02:54:02.957Z,90.42
2018-09-05T02:55:02.963Z,89.94
2018-09-05T02:56:03.022Z,90.22
2018-09-05T02:57:02.977Z,89.94
2018-09-05T02:58:03.028Z,90.22
2018-09-05T02:59:03.000Z,89.94
2018-09-05T03:00:03.024Z,90.42
2018-09-05T03:01:03.025Z,90.03
2018-09-05T03:02:03.030Z,89.65
2018-09-05T03:03:03.084Z,90.03
2018-09-05T03:04:03.042Z,89.75
2018-09-05T03:05:03.083Z,90.13
2018-09-05T03:06:03.082Z,89.84
2018-09-05T03:07:03.086Z,89.84
2018-09-05T03:08:03.083Z,90.22
2018-09-05T03:09:03.143Z,89.84
2018-09-05T03:10:03.119Z,89.84
2018-09-05T03:11:03.140Z,89.46
2018-09-05T03:12:03.146Z,89.46
2018-09-05T03:13:03.116Z,89.22
2018-09-05T03:14:03.141Z,89.40
2018-09-05T03:15:03.215Z,89.40
2018-09-05T03:16:03.188Z,89.84
2018-09-05T03:17:03.181Z,89.31
2018-09-05T03:18:03.195Z,90.17
2018-09-05T03:19:04.107Z,89.65
2018-09-05T03:20:03.222Z,89.12
2018-09-05T03:21:03.220Z,89.40
2018-09-05T03:22:03.287Z,89.31
2018-09-05T03:23:03.245Z,89.50
2018-09-05T03:24:03.254Z,89.02
2018-09-05T03:25:03.240Z,89.40
2018-09-05T03:26:03.288Z,89.40
2018-09-05T03:27:03.321Z,89.22
2018-09-05T03:28:03.317Z,89.22
2018-09-05T03:29:03.316Z,89.22
2018-09-05T03:30:03.322Z,89.50
2018-09-05T03:31:03.318Z,89.89
2018-09-05T03:32:03.319Z,90.17
2018-09-05T03:33:03.413Z,89.31
2018-09-05T03:34:03.386Z,89.12
2018-09-05T03:35:03.390Z,89.31
2018-09-05T03:36:03.396Z,89.40
2018-09-05T03:37:03.378Z,89.12
2018-09-05T03:38:03.414Z,89.40
2018-09-05T03:39:03.405Z,89.02
2018-09-05T03:40:03.411Z,88.83
2018-09-05T03:41:03.436Z,89.40
2018-09-05T03:42:03.441Z,89.69
2018-09-05T03:43:03.443Z,89.31
2018-09-05T03:44:03.459Z,89.31
2018-09-05T03:45:03.914Z,89.02
2018-09-05T03:46:03.470Z,89.60
2018-09-05T03:47:03.491Z,89.31
2018-09-05T03:48:03.499Z,89.60
2018-09-05T03:49:03.483Z,89.40
2018-09-05T03:50:03.493Z,89.69
2018-09-05T03:51:03.550Z,90.17
2018-09-05T03:52:03.657Z,90.56
2018-09-05T03:53:03.546Z,90.56
2018-09-05T03:54:03.550Z,89.79
2018-09-05T03:55:03.557Z,89.98
2018-09-05T03:56:03.606Z,89.98
2018-09-05T03:57:03.578Z,89.98
2018-09-05T03:58:03.736Z,90.80
2018-09-05T03:59:03.618Z,90.37
2018-09-05T04:00:03.599Z,90.56
2018-09-05T04:01:03.641Z,90.17
2018-09-05T04:02:03.630Z,91.19
2018-09-05T04:03:03.675Z,91.23
2018-09-05T04:04:03.662Z,91.38
2018-09-05T04:05:03.684Z,91.66
2018-09-05T04:06:03.687Z,91.76
2018-09-05T04:07:03.738Z,91.66
2018-09-05T04:08:03.690Z,90.84
2018-09-05T04:09:03.700Z,90.75
2018-09-05T04:10:03.697Z,91.04
2018-09-05T04:11:03.716Z,90.75
2018-09-05T04:12:03.918Z,90.46
2018-09-05T04:13:03.736Z,90.46
2018-09-05T04:14:03.782Z,90.46
2018-09-05T04:15:03.771Z,89.98
2018-09-05T04:16:03.823Z,90.27
2018-09-05T04:17:03.813Z,90.46
2018-09-05T04:18:03.850Z,89.69
2018-09-05T04:19:03.789Z,89.89
2018-09-05T04:20:03.809Z,89.98
2018-09-05T04:21:03.837Z,89.89
2018-09-05T04:22:03.891Z,90.56
2018-09-05T04:23:03.864Z,89.89
2018-09-05T04:24:03.854Z,89.89
2018-09-05T04:25:03.877Z,89.79
2018-09-05T04:26:03.905Z,89.79
2018-09-05T04:27:03.901Z,90.17
2018-09-05T04:28:03.891Z,89.98
2018-09-05T04:29:03.944Z,90.03
2018-09-05T04:30:03.910Z,89.98
2018-09-05T04:31:03.923Z,89.22
2018-09-05T04:32:03.921Z,89.36
2018-09-05T04:33:03.968Z,89.54
2018-09-05T04:34:04.027Z,89.98
2018-09-05T04:35:04.011Z,89.54
2018-09-05T04:36:03.995Z,89.54
2018-09-05T04:37:03.991Z,89.07
2018-09-05T04:38:03.987Z,89.64
2018-09-05T04:39:04.264Z,88.87
2018-09-05T04:40:04.020Z,89.07
2018-09-05T04:41:04.048Z,89.36
2018-09-05T04:42:04.055Z,89.26
2018-09-05T04:43:04.047Z,89.83
2018-09-05T04:44:04.061Z,89.36
2018-09-05T04:45:04.141Z,89.22
2018-09-05T04:46:04.068Z,89.40
2018-09-05T04:47:04.083Z,90.08
2018-09-05T04:48:04.118Z,89.45
2018-09-05T04:49:04.129Z,89.07
2018-09-05T04:50:04.109Z,89.54
2018-09-05T04:51:04.190Z,89.69
2018-09-05T04:52:04.180Z,89.60
2018-09-05T04:53:04.149Z,90.08
2018-09-05T04:54:04.189Z,90.56
2018-09-05T04:55:04.182Z,90.99
2018-09-05T04:56:04.178Z,91.23
2018-09-05T04:57:04.225Z,91.57
2018-09-05T04:58:04.208Z,91.71
2018-09-05T04:59:04.249Z,90.46
2018-09-05T05:00:04.227Z,90.46
2018-09-05T05:01:04.251Z,90.08
2018-09-05T05:02:04.234Z,90.27
2018-09-05T05:03:04.237Z,90.75
2018-09-05T05:04:04.299Z,89.98
2018-09-05T05:05:04.325Z,90.27
2018-09-05T05:06:04.389Z,89.69
2018-09-05T05:07:04.302Z,89.40
2018-09-05T05:08:04.308Z,89.74
2018-09-05T05:09:04.332Z,89.22
2018-09-05T05:10:04.356Z,89.26
2018-09-05T05:11:04.346Z,89.64
2018-09-05T05:12:04.361Z,89.02
2018-09-05T05:13:04.351Z,90.08
2018-09-05T05:14:04.416Z,89.31
2018-09-05T05:15:04.365Z,89.12
2018-09-05T05:16:04.445Z,89.22
2018-09-05T05:17:04.418Z,88.78
2018-09-05T05:18:04.397Z,88.87
2018-09-05T05:19:04.414Z,88.87
2018-09-05T05:20:04.440Z,89.40
2018-09-05T05:21:04.451Z,90.17
2018-09-05T05:22:04.483Z,89.98
2018-09-05T05:23:04.494Z,89.98
2018-09-05T05:24:04.467Z,90.17
2018-09-05T05:25:04.534Z,90.27
2018-09-05T05:26:04.539Z,89.54
2018-09-05T05:27:04.502Z,89.54
2018-09-05T05:28:04.541Z,88.97
2018-09-05T05:29:04.552Z,89.26
2018-09-05T05:30:04.542Z,89.45
2018-09-05T05:31:04.694Z,89.22
2018-09-05T05:32:04.591Z,89.98
2018-09-05T05:33:04.712Z,89.89
2018-09-05T05:34:04.709Z,89.54
2018-09-05T05:35:04.569Z,88.87
2018-09-05T05:36:04.608Z,89.50
2018-09-05T05:37:04.620Z,89.31
2018-09-05T05:38:04.625Z,89.40
2018-09-05T05:39:04.669Z,89.16
2018-09-05T05:40:04.650Z,89.26
2018-09-05T05:41:04.666Z,88.97
2018-09-05T05:42:04.709Z,89.26
2018-09-05T05:43:04.667Z,89.22
2018-09-05T05:44:04.698Z,89.07
2018-09-05T05:45:04.695Z,89.07
2018-09-05T05:46:04.935Z,89.74
2018-09-05T05:47:04.776Z,89.07
2018-09-05T05:48:04.812Z,89.07
2018-09-05T05:49:04.732Z,89.31
2018-09-05T05:50:04.746Z,89.98
2018-09-05T05:51:04.794Z,90.08
2018-09-05T05:52:04.782Z,89.54
2018-09-05T05:53:04.773Z,90.08
2018-09-05T05:54:04.803Z,89.79
2018-09-05T05:55:04.902Z,90.75
2018-09-05T05:56:04.849Z,90.75
2018-09-05T05:57:04.864Z,89.98
2018-09-05T05:58:04.848Z,89.45
2018-09-05T05:59:04.932Z,89.26
2018-09-05T06:00:04.865Z,88.87
2018-09-05T06:01:04.991Z,88.87
2018-09-05T06:02:04.903Z,88.87
2018-09-05T06:03:04.879Z,88.87
2018-09-05T06:04:04.898Z,88.87
2018-09-05T06:05:04.906Z,88.68
2018-09-05T06:06:04.948Z,88.78
2018-09-05T06:07:04.963Z,88.49
2018-09-05T06:08:04.954Z,88.01
2018-09-05T06:09:04.955Z,88.10
2018-09-05T06:10:04.955Z,87.82
2018-09-05T06:11:04.994Z,88.30
2018-09-05T06:12:05.002Z,87.86
2018-09-05T06:13:05.002Z,87.38
2018-09-05T06:14:05.023Z,87.19
2018-09-05T06:15:05.012Z,86.99
2018-09-05T06:16:05.049Z,87.09
2018-09-05T06:17:05.034Z,86.80
2018-09-05T06:18:05.146Z,86.95
2018-09-05T06:19:05.075Z,87.53
2018-09-05T06:20:05.077Z,87.72
2018-09-05T06:21:05.095Z,87.72
2018-09-05T06:22:05.126Z,87.53
2018-09-05T06:23:05.118Z,87.19
2018-09-05T06:24:05.150Z,86.61
2018-09-05T06:25:05.162Z,86.42
2018-09-05T06:26:05.137Z,86.42
2018-09-05T06:27:05.124Z,86.32
2018-09-05T06:28:05.444Z,86.04
2018-09-05T06:29:05.207Z,85.65
2018-09-05T06:30:05.154Z,86.04
2018-09-05T06:31:05.260Z,86.61
2018-09-05T06:32:05.201Z,86.52
2018-09-05T06:33:05.200Z,86.22
2018-09-05T06:34:05.299Z,85.36
2018-09-05T06:35:05.226Z,85.78
2018-09-05T06:36:05.243Z,85.40
2018-09-05T06:37:05.258Z,84.92
2018-09-05T06:38:05.278Z,84.83
2018-09-05T06:39:05.296Z,84.73
2018-09-05T06:40:05.299Z,84.54
2018-09-05T06:41:05.295Z,84.44
2018-09-05T06:42:05.309Z,83.96
2018-09-05T06:43:05.312Z,84.25
2018-09-05T06:44:05.381Z,83.48
2018-09-05T06:45:05.397Z,83.39
2018-09-05T06:46:05.334Z,82.94
2018-09-05T06:47:05.423Z,83.19
2018-09-05T06:48:05.363Z,83.39
2018-09-05T06:49:05.412Z,83.48
2018-09-05T06:50:05.397Z,83.67
2018-09-05T06:51:05.434Z,82.94
2018-09-05T06:52:05.475Z,82.46
2018-09-05T06:53:05.438Z,82.56
2018-09-05T06:54:05.488Z,82.27
2018-09-05T06:55:05.442Z,81.40
2018-09-05T06:56:05.448Z,81.40
2018-09-05T06:57:05.507Z,81.50
2018-09-05T06:58:05.572Z,81.70
2018-09-05T06:59:05.503Z,81.06
2018-09-05T07:00:05.517Z,80.68
2018-09-05T07:01:05.524Z,80.96
2018-09-05T07:02:05.564Z,80.77
2018-09-05T07:03:05.570Z,80.96
2018-09-05T07:04:05.810Z,80.63
2018-09-05T07:05:05.577Z,79.86
2018-09-05T07:06:05.568Z,80.54
2018-09-05T07:07:05.632Z,80.54
2018-09-05T07:08:05.585Z,80.54
2018-09-05T07:09:05.628Z,80.77
2018-09-05T07:10:05.727Z,80.58
2018-09-05T07:11:05.663Z,80.44
2018-09-05T07:12:05.646Z,80.10
2018-09-05T07:13:05.672Z,80.19
2018-09-05T07:14:05.680Z,80.19
2018-09-05T07:15:05.713Z,79.81
2018-09-05T07:16:05.690Z,80.15
2018-09-05T07:17:05.710Z,79.96
2018-09-05T07:18:05.707Z,80.15
2018-09-05T07:19:05.723Z,79.81
2018-09-05T07:20:05.744Z,79.13
2018-09-05T07:21:06.222Z,79.71
2018-09-05T07:22:05.843Z,79.43
2018-09-05T07:23:05.757Z,79.52
2018-09-05T07:24:05.785Z,79.61
2018-09-05T07:25:05.856Z,79.71
2018-09-05T07:26:05.858Z,79.61
2018-09-05T07:27:05.862Z,79.03
2018-09-05T07:28:05.817Z,79.03
2018-09-05T07:29:05.848Z,79.33
2018-09-05T07:30:05.842Z,79.33
2018-09-05T07:31:05.870Z,78.94
2018-09-05T07:32:05.904Z,79.13
2018-09-05T07:33:05.917Z,78.08
2018-09-05T07:34:05.930Z,78.56
2018-09-05T07:35:05.918Z,78.65
2018-09-05T07:36:05.920Z,78.40
2018-09-05T07:37:06.004Z,78.27
2018-09-05T07:38:05.944Z,78.27
2018-09-05T07:39:05.959Z,78.56
2018-09-05T07:40:05.952Z,78.36
2018-09-05T07:41:05.983Z,78.36
2018-09-05T07:42:06.033Z,77.69
2018-09-05T07:43:06.025Z,77.88
2018-09-05T07:44:06.022Z,78.17
2018-09-05T07:45:06.034Z,78.08
2018-09-05T07:46:06.047Z,78.08
2018-09-05T07:47:06.031Z,78.56
2018-09-05T07:48:06.129Z,78.08
2018-09-05T07:49:06.065Z,78.36
2018-09-05T07:50:06.111Z,78.36
2018-09-05T07:51:06.217Z,77.69
2018-09-05T07:52:06.100Z,78.17
2018-09-05T07:53:06.216Z,78.52
2018-09-05T07:54:06.122Z,78.94
2018-09-05T07:55:06.163Z,78.94
2018-09-05T07:56:06.184Z,78.65
2018-09-05T07:57:06.149Z,78.46
2018-09-05T07:58:06.177Z,78.46
2018-09-05T07:59:06.207Z,78.94
2018-09-05T08:00:06.207Z,78.75
2018-09-05T08:01:06.214Z,78.75
2018-09-05T08:02:06.280Z,78.85
2018-09-05T08:03:06.240Z,78.17
2018-09-05T08:04:06.239Z,78.56
2018-09-05T08:05:06.246Z,78.56
2018-09-05T08:06:06.287Z,78.56
2018-09-05T08:07:06.258Z,78.56
2018-09-05T08:08:06.309Z,78.08
2018-09-05T08:09:06.336Z,78.08
2018-09-05T08:10:06.331Z,78.46
2018-09-05T08:11:06.320Z,78.36
2018-09-05T08:12:06.359Z,78.08
2018-09-05T08:13:06.341Z,78.08
2018-09-05T08:14:06.398Z,78.36
2018-09-05T08:15:06.350Z,77.59
2018-09-05T08:16:06.398Z,77.88
2018-09-05T08:17:06.461Z,77.50
2018-09-05T08:18:06.477Z,77.40
2018-09-05T08:19:06.423Z,77.88
2018-09-05T08:20:06.454Z,77.88
2018-09-05T08:21:06.472Z,77.69
2018-09-05T08:22:06.466Z,77.98
2018-09-05T08:23:06.470Z,78.08
2018-09-05T08:24:06.468Z,77.40
2018-09-05T08:25:06.489Z,77.31
2018-09-05T08:26:06.549Z,77.59
2018-09-05T08:27:06.497Z,77.59
2018-09-05T08:28:06.532Z,77.31
2018-09-05T08:29:06.581Z,76.73
2018-09-05T08:30:06.665Z,76.53
2018-09-05T08:31:06.566Z,76.34
2018-09-05T08:32:06.587Z,76.67
2018-09-05T08:33:06.561Z,75.86
2018-09-05T08:34:06.585Z,75.28
2018-09-05T08:35:06.641Z,75.19
2018-09-05T08:36:06.894Z,74.71
2018-09-05T08:37:06.818Z,75.67
2018-09-05T08:38:06.681Z,74.93
2018-09-05T08:39:06.659Z,74.74
2018-09-05T08:40:06.710Z,74.93
2018-09-05T08:41:06.679Z,75.23
2018-09-05T08:42:06.737Z,74.74
2018-09-05T08:43:06.726Z,75.13
2018-09-05T08:44:06.858Z,74.45
2018-09-05T08:45:06.872Z,74.07
2018-09-05T08:46:06.780Z,73.68
2018-09-05T08:47:06.742Z,73.39
2018-09-05T08:48:06.846Z,73.10
2018-09-05T08:49:06.744Z,72.72
2018-09-05T08:50:06.781Z,72.53
2018-09-05T08:51:06.835Z,72.63
2018-09-05T08:52:06.805Z,72.72
2018-09-05T08:53:06.793Z,72.63
2018-09-05T08:54:06.870Z,72.81
2018-09-05T08:55:06.864Z,72.85
2018-09-05T08:56:06.846Z,72.75
2018-09-05T08:57:06.961Z,72.14
2018-09-05T08:58:06.853Z,72.33
2018-09-05T08:59:06.890Z,72.18
2018-09-05T09:00:06.906Z,72.37
2018-09-05T09:01:06.910Z,72.75
2018-09-05T09:02:06.898Z,72.37
2018-09-05T09:03:07.085Z,70.83
2018-09-05T09:04:07.063Z,71.22
2018-09-05T09:05:07.042Z,71.12
2018-09-05T09:06:07.050Z,71.41
2018-09-05T09:07:06.972Z,70.54
2018-09-05T09:08:06.959Z,71.12
2018-09-05T09:09:07.010Z,70.54
2018-09-05T09:10:07.000Z,70.35
2018-09-05T09:11:07.013Z,70.06
2018-09-05T09:12:07.045Z,69.96
2018-09-05T09:13:07.023Z,69.42
2018-09-05T09:14:07.147Z,69.32
2018-09-05T09:15:07.072Z,68.23
2018-09-05T09:16:07.098Z,67.55
2018-09-05T09:17:07.123Z,67.36
2018-09-05T09:18:07.112Z,67.30
2018-09-05T09:19:07.095Z,67.49
2018-09-05T09:20:07.109Z,66.72
2018-09-05T09:21:07.192Z,66.33
2018-09-05T09:22:07.144Z,66.82
2018-09-05T09:23:07.172Z,66.52
2018-09-05T09:24:07.442Z,66.91
2018-09-05T09:25:07.176Z,66.91
2018-09-05T09:26:07.241Z,66.43
2018-09-05T09:27:07.200Z,66.91
2018-09-05T09:28:07.195Z,66.43
2018-09-05T09:29:07.240Z,67.33
2018-09-05T09:30:07.229Z,66.91
2018-09-05T09:31:07.256Z,66.04
2018-09-05T09:32:07.275Z,65.95
2018-09-05T09:33:07.287Z,66.56
2018-09-05T09:34:07.268Z,66.36
2018-09-05T09:35:07.300Z,67.52
2018-09-05T09:36:07.371Z,66.08
2018-09-05T09:37:07.315Z,66.08
2018-09-05T09:38:07.348Z,66.75
2018-09-05T09:39:07.342Z,66.97
2018-09-05T09:40:07.359Z,66.69
2018-09-05T09:41:07.446Z,66.59
2018-09-05T09:42:07.416Z,66.40
2018-09-05T09:43:07.368Z,65.53
2018-09-05T09:44:07.392Z,65.24
2018-09-05T09:45:07.427Z,64.18
2018-09-05T09:46:07.441Z,64.18
2018-09-05T09:47:07.457Z,64.40
2018-09-05T09:48:07.459Z,63.43
2018-09-05T09:49:07.467Z,64.31
2018-09-05T09:50:07.470Z,64.31
2018-09-05T09:51:07.480Z,63.53
2018-09-05T09:52:07.517Z,64.31
2018-09-05T09:53:07.537Z,64.05
2018-09-05T09:54:07.517Z,63.66
2018-09-05T09:55:07.536Z,64.24
2018-09-05T09:56:07.546Z,63.56
2018-09-05T09:57:07.622Z,61.92
2018-09-05T09:58:07.604Z,61.83
2018-09-05T09:59:07.629Z,62.21
2018-09-05T10:00:07.652Z,62.21
2018-09-05T10:01:07.623Z,61.83
2018-09-05T10:02:07.632Z,62.05
2018-09-05T10:03:07.700Z,62.73
2018-09-05T10:04:07.815Z,61.66
2018-09-05T10:05:07.665Z,61.76
2018-09-05T10:06:07.709Z,61.86
2018-09-05T10:07:07.727Z,62.66
2018-09-05T10:08:07.708Z,62.95
2018-09-05T10:09:07.766Z,64.11
2018-09-05T10:10:07.958Z,62.08
2018-09-05T10:11:07.804Z,60.72
2018-09-05T10:12:07.801Z,59.73
2018-09-05T10:13:07.823Z,59.47
2018-09-05T10:14:07.800Z,60.05
2018-09-05T10:15:07.838Z,59.76
2018-09-05T10:16:07.834Z,60.34
2018-09-05T10:17:07.956Z,59.28
2018-09-05T10:18:07.842Z,58.70
2018-09-05T10:19:07.881Z,59.18
2018-09-05T10:20:07.877Z,58.95
2018-09-05T10:21:07.962Z,58.76
2018-09-05T10:22:07.947Z,58.95
2018-09-05T10:23:07.953Z,59.25
2018-09-05T10:24:07.918Z,60.41
2018-09-05T10:25:07.952Z,59.86
2018-09-05T10:26:07.977Z,60.05
2018-09-05T10:27:07.991Z,59.08
2018-09-05T10:28:08.015Z,60.14
2018-09-05T10:29:08.046Z,58.98
2018-09-05T10:30:08.006Z,59.18
2018-09-05T10:31:08.039Z,58.60
2018-09-05T10:32:08.027Z,59.08
2018-09-05T10:33:08.059Z,58.02
2018-09-05T10:34:08.079Z,58.98
2018-09-05T10:35:08.119Z,58.98
2018-09-05T10:36:08.081Z,59.11
2018-09-05T10:37:08.101Z,58.40
2018-09-05T10:38:08.107Z,58.02
2018-09-05T10:39:08.123Z,58.40
2018-09-05T10:40:08.177Z,58.31
2018-09-05T10:41:08.165Z,58.02
2018-09-05T10:42:08.293Z,58.14
2018-09-05T10:43:08.169Z,58.04
2018-09-05T10:44:08.258Z,57.08
2018-09-05T10:45:08.227Z,57.08
2018-09-05T10:46:08.222Z,57.76
2018-09-05T10:47:08.268Z,57.08
2018-09-05T10:48:08.272Z,56.28
2018-09-05T10:49:08.523Z,56.47
2018-09-05T10:50:08.276Z,56.28
2018-09-05T10:51:08.294Z,56.09
2018-09-05T10:52:08.316Z,56.47
2018-09-05T10:53:08.306Z,56.95
2018-09-05T10:54:08.340Z,57.15
2018-09-05T10:55:08.387Z,56.67
2018-09-05T10:56:08.376Z,57.41
2018-09-05T10:57:08.379Z,57.05
2018-09-05T10:58:08.413Z,57.24
2018-09-05T10:59:08.408Z,56.37
2018-09-05T11:00:08.727Z,57.44
2018-09-05T11:01:08.435Z,57.15
2018-09-05T11:02:08.465Z,56.86
2018-09-05T11:03:08.574Z,56.67
2018-09-05T11:04:08.525Z,56.86
2018-09-05T11:05:08.505Z,56.37
2018-09-05T11:06:08.553Z,56.57
2018-09-05T11:07:08.565Z,56.28
2018-09-05T11:08:08.517Z,56.40
2018-09-05T11:09:08.532Z,57.08
2018-09-05T11:10:08.589Z,56.98
2018-09-05T11:11:08.585Z,56.11
2018-09-05T11:12:08.590Z,56.30
2018-09-05T11:13:08.591Z,56.70
2018-09-05T11:14:08.597Z,56.02
2018-09-05T11:15:08.624Z,56.30
2018-09-05T11:16:08.641Z,55.43
2018-09-05T11:17:08.671Z,56.30
2018-09-05T11:18:08.745Z,55.05
2018-09-05T11:19:08.743Z,54.57
2018-09-05T11:20:08.680Z,55.15
2018-09-05T11:21:08.750Z,55.05
2018-09-05T11:22:08.711Z,53.89
2018-09-05T11:23:08.713Z,53.99
2018-09-05T11:24:08.819Z,53.91
2018-09-05T11:25:08.754Z,53.41
2018-09-05T11:26:08.887Z,54.59
2018-09-05T11:27:08.774Z,54.11
2018-09-05T11:28:08.810Z,53.79
2018-09-05T11:29:08.881Z,53.89
2018-09-05T11:30:08.801Z,52.73
2018-09-05T11:31:08.876Z,54.08
2018-09-05T11:32:08.902Z,53.99
2018-09-05T11:33:08.845Z,53.50
2018-09-05T11:34:08.882Z,53.89
2018-09-05T11:35:08.905Z,53.99
2018-09-05T11:36:08.906Z,53.59
2018-09-05T11:37:08.932Z,53.50
2018-09-05T11:38:08.957Z,53.96
2018-09-05T11:39:08.969Z,53.50
2018-09-05T11:40:08.961Z,52.99
2018-09-05T11:41:08.972Z,53.28
2018-09-05T11:42:08.998Z,53.57
2018-09-05T11:43:08.996Z,53.86
2018-09-05T11:44:09.070Z,54.27
2018-09-05T11:45:09.050Z,53.38
2018-09-05T11:46:09.072Z,53.99
2018-09-05T11:47:09.049Z,54.57
2018-09-05T11:48:09.094Z,53.57
2018-09-05T11:49:09.106Z,53.77
2018-09-05T11:50:09.089Z,53.38
2018-09-05T11:51:09.132Z,54.47
2018-09-05T11:52:09.124Z,54.27
2018-09-05T11:53:09.117Z,53.11
2018-09-05T11:54:09.165Z,53.99
2018-09-05T11:55:09.173Z,53.50
2018-09-05T11:56:09.190Z,53.41
2018-09-05T11:57:09.235Z,53.89
2018-09-05T11:58:09.191Z,53.21
2018-09-05T11:59:09.214Z,53.50
2018-09-05T12:00:09.240Z,53.99
2018-09-05T12:01:09.262Z,55.46
2018-09-05T12:02:09.318Z,54.49
2018-09-05T12:03:09.290Z,56.34
2018-09-05T12:04:09.301Z,54.11
2018-09-05T12:05:09.311Z,53.33
2018-09-05T12:06:09.320Z,52.95
2018-09-05T12:07:09.311Z,53.04
2018-09-05T12:08:09.366Z,52.17
2018-09-05T12:09:09.351Z,52.17
2018-09-05T12:10:09.366Z,52.66
2018-09-05T12:11:09.390Z,53.04
2018-09-05T12:12:09.428Z,51.72
2018-09-05T12:13:09.430Z,51.10
2018-09-05T12:14:09.448Z,51.88
2018-09-05T12:15:09.416Z,51.20
2018-09-05T12:16:09.467Z,50.84
2018-09-05T12:17:09.442Z,51.23
2018-09-05T12:18:09.500Z,52.20
2018-09-05T12:19:09.512Z,52.58
2018-09-05T12:20:09.533Z,51.81
2018-09-05T12:21:09.526Z,50.45
2018-09-05T12:22:09.535Z,50.35
2018-09-05T12:23:09.545Z,49.68
2018-09-05T12:24:09.587Z,50.52
2018-09-05T12:25:09.577Z,50.55
2018-09-05T12:26:09.613Z,50.55
2018-09-05T12:27:09.628Z,50.74
2018-09-05T12:28:09.604Z,50.35
2018-09-05T12:29:09.627Z,50.26
2018-09-05T12:30:09.692Z,49.87
2018-09-05T12:31:09.682Z,49.68
2018-09-05T12:32:09.697Z,50.45
2018-09-05T12:33:09.749Z,52.00
2018-09-05T12:34:09.694Z,50.07
2018-09-05T12:35:09.699Z,49.77
2018-09-05T12:36:09.731Z,50.45
2018-09-05T12:37:09.738Z,50.26
2018-09-05T12:38:09.880Z,52.61
2018-09-05T12:39:09.789Z,52.03
2018-09-05T12:40:09.799Z,50.19
2018-09-05T12:41:09.805Z,50.09
2018-09-05T12:42:09.831Z,50.29
2018-09-05T12:43:09.854Z,50.19
2018-09-05T12:44:09.856Z,50.19
2018-09-05T12:45:10.596Z,49.70
2018-09-05T12:46:09.909Z,49.19
2018-09-05T12:47:09.878Z,49.68
2018-09-05T12:48:09.900Z,49.77
2018-09-05T12:49:09.935Z,50.35
2018-09-05T12:50:09.915Z,50.26
2018-09-05T12:51:09.930Z,50.65
2018-09-05T12:52:09.945Z,50.45